Terminal Aerodrome Forecast
Issued by NWS

Home | Current Version | Previous Version | Text Only | Print | Product List | Glossary On
Versions: 1 2 3 4 5 6 7 8 9 10 11 12 13 14 15 16 17 18 19 20 21 22 23 24
000
FTUS45 KGGW 232300
TAFOLF
TAF
KOLF 232320Z 2400/2424 26010KT P6SM BKN250
     FM241200 24008KT 5SM -RA BKN070
     FM241800 28014KT P6SM BKN190 WS020/32045KT=

USA.gov is the U.S. government's official web portal to all federal, state and local government web resources and services.